Time;durP1;ratioP1;P1;durP2;ratioP2;P2;SDS_P1;SDS_P2;PMS_P1;PMS_P2;Temp;Humidity;BMP_temperature;BMP_pressure;BME280_temperature;BME280_humidity;BME280_pressure;Samples;Min_cycle;Max_cycle;Signal;HPM_P1;HPM_P2
2022/03/03 00:01:40;;;;;;;21.83;14.02;;;1.40;99.90;;;;;;5037127;28;20669;-75
2022/03/03 00:04:06;;;;;;;28.83;16.65;;;1.40;99.90;;;;;;5035633;28;20036;-75
2022/03/03 00:06:32;;;;;;;;;;;1.40;99.90;;;;;;5037948;28;20351;-74
2022/03/03 00:08:57;;;;;;;25.20;15.90;;;1.40;99.90;;;;;;5037243;28;19909;-75
2022/03/03 00:11:23;;;;;;;29.88;15.20;;;1.40;99.90;;;;;;5036601;28;20197;-74
2022/03/03 00:13:48;;;;;;;25.50;15.45;;;1.30;99.90;;;;;;5038801;28;20052;-75
2022/03/03 00:16:14;;;;;;;28.52;14.75;;;1.30;99.90;;;;;;5036355;28;20134;-75
2022/03/03 00:18:40;;;;;;;25.00;16.75;;;1.30;99.90;;;;;;5035313;28;20036;-74
2022/03/03 00:21:05;;;;;;;24.10;15.98;;;1.30;99.90;;;;;;5035266;28;20472;-74
2022/03/03 00:23:32;;;;;;;27.75;16.63;;;1.30;99.90;;;;;;5037847;28;20033;-74
2022/03/03 00:25:58;;;;;;;27.95;16.77;;;1.20;99.90;;;;;;5037472;28;20498;-74
2022/03/03 00:28:24;;;;;;;23.48;15.48;;;1.10;99.90;;;;;;5036665;28;20021;-74
2022/03/03 00:30:49;;;;;;;25.27;15.07;;;1.20;99.90;;;;;;5037775;28;20113;-74
2022/03/03 00:33:15;;;;;;;23.73;15.68;;;1.10;99.90;;;;;;5036123;28;20029;-74
2022/03/03 00:35:40;;;;;;;23.25;14.75;;;1.10;99.90;;;;;;5035006;28;20037;-74
2022/03/03 00:38:06;;;;;;;25.63;15.63;;;1.10;99.90;;;;;;5037363;28;20035;-74
2022/03/03 00:40:31;;;;;;;28.48;15.00;;;1.10;99.90;;;;;;5037822;28;20434;-74
2022/03/03 00:42:57;;;;;;;24.05;14.77;;;1.10;99.90;;;;;;5037817;28;20035;-74
2022/03/03 00:45:22;;;;;;;25.10;15.85;;;1.10;99.90;;;;;;5035812;28;20485;-74
2022/03/03 00:47:49;;;;;;;23.90;15.25;;;1.10;99.90;;;;;;5052576;22;20053;-70
2022/03/03 00:50:15;;;;;;;26.05;16.40;;;1.10;99.90;;;;;;5036766;28;20053;-70
2022/03/03 00:52:41;;;;;;;;;;;1.10;99.90;;;;;;5037032;28;20033;-70
2022/03/03 00:55:07;;;;;;;24.23;15.95;;;1.10;99.90;;;;;;5038003;28;19915;-69
2022/03/03 00:57:33;;;;;;;25.67;15.15;;;1.10;99.90;;;;;;5036585;28;20059;-70
2022/03/03 00:59:58;;;;;;;28.92;18.17;;;1.10;99.90;;;;;;5037031;28;20051;-69
2022/03/03 01:02:24;;;;;;;27.95;17.65;;;1.00;99.90;;;;;;5032775;28;20083;-70
2022/03/03 01:04:49;;;;;;;24.75;14.75;;;1.00;99.90;;;;;;5032591;28;20021;-70
2022/03/03 01:07:15;;;;;;;25.85;14.63;;;0.90;99.90;;;;;;5017920;28;20044;-69
2022/03/03 01:09:40;;;;;;;25.05;16.02;;;0.90;99.90;;;;;;5036510;28;20033;-70
2022/03/03 01:12:06;;;;;;;29.33;15.10;;;0.90;99.90;;;;;;5034430;28;20478;-70
2022/03/03 01:14:32;;;;;;;21.90;14.15;;;0.90;99.90;;;;;;5036403;28;20128;-70
2022/03/03 01:16:57;;;;;;;22.92;14.98;;;0.90;99.90;;;;;;5037263;28;20163;-70
2022/03/03 01:19:23;;;;;;;20.08;13.75;;;0.80;99.90;;;;;;5038034;28;20025;-70
2022/03/03 01:21:49;;;;;;;21.83;13.52;;;0.80;99.90;;;;;;5036705;28;20033;-69
2022/03/03 01:24:14;;;;;;;21.67;14.55;;;0.80;99.90;;;;;;5038133;28;20105;-69
2022/03/03 01:26:40;;;;;;;21.70;12.40;;;0.70;99.90;;;;;;5036133;28;20035;-70
2022/03/03 01:29:05;;;;;;;26.08;14.35;;;0.60;99.90;;;;;;5035362;28;20367;-69
2022/03/03 01:31:31;;;;;;;21.27;14.50;;;0.50;99.90;;;;;;5034451;28;20546;-69
2022/03/03 01:33:56;;;;;;;21.80;13.73;;;0.50;99.90;;;;;;5034865;28;20477;-69
2022/03/03 01:36:22;;;;;;;22.63;13.63;;;0.40;99.90;;;;;;5034760;28;20036;-69
2022/03/03 01:38:48;;;;;;;20.55;13.13;;;0.30;99.90;;;;;;5037919;28;20017;-69
2022/03/03 01:41:13;;;;;;;22.05;13.05;;;0.30;99.90;;;;;;5035687;28;20562;-69
2022/03/03 01:43:39;;;;;;;20.63;12.80;;;0.30;99.90;;;;;;5030289;28;20555;-69
2022/03/03 01:46:05;;;;;;;21.88;13.48;;;0.20;99.90;;;;;;5034014;28;20058;-70
2022/03/03 01:48:30;;;;;;;;;;;0.20;99.90;;;;;;5038966;28;20028;-70
2022/03/03 01:50:56;;;;;;;24.90;14.77;;;0.30;99.90;;;;;;5041309;28;20000;-70
2022/03/03 01:53:22;;;;;;;23.80;13.20;;;0.30;99.90;;;;;;5041736;28;20029;-70
2022/03/03 01:55:50;;;;;;;26.05;14.20;;;0.30;99.90;;;;;;5041216;28;20029;-70
2022/03/03 01:58:16;;;;;;;23.85;14.00;;;0.20;99.90;;;;;;5041694;28;20029;-69
2022/03/03 02:00:44;;;;;;;21.90;14.65;;;0.20;99.90;;;;;;5035216;28;20033;-70
2022/03/03 02:03:11;;;;;;;27.60;14.77;;;0.30;99.90;;;;;;5039655;28;20045;-70
2022/03/03 02:05:37;;;;;;;20.27;14.77;;;0.20;99.90;;;;;;5039286;28;20108;-70
2022/03/03 02:08:03;;;;;;;25.40;15.50;;;0.20;99.90;;;;;;5039175;28;20520;-69
2022/03/03 02:10:31;;;;;;;27.38;17.30;;;0.10;99.90;;;;;;5038364;28;20068;-69
2022/03/03 02:12:56;;;;;;;27.20;15.60;;;0.00;99.90;;;;;;5039088;28;20492;-70
2022/03/03 02:15:22;;;;;;;26.83;16.92;;;0.00;99.90;;;;;;5038974;28;20029;-69
2022/03/03 02:17:49;;;;;;;23.85;14.88;;;0.00;99.90;;;;;;5039984;28;20088;-70
2022/03/03 02:20:20;;;;;;;29.23;15.50;;;-0.10;99.90;;;;;;5039824;28;20067;-69
2022/03/03 02:22:45;;;;;;;26.58;16.27;;;-0.10;99.90;;;;;;5040255;28;20035;-69
2022/03/03 02:25:11;;;;;;;21.90;14.95;;;-0.10;99.90;;;;;;5038637;28;20025;-69
2022/03/03 02:27:37;;;;;;;27.92;16.20;;;-0.10;99.90;;;;;;5041158;28;20057;-69
2022/03/03 02:30:03;;;;;;;;;;;-0.10;99.90;;;;;;5039256;28;20025;-69
2022/03/03 02:32:29;;;;;;;23.67;13.32;;;-0.10;99.90;;;;;;5038373;28;19920;-69
2022/03/03 02:34:54;;;;;;;32.90;20.38;;;0.00;99.90;;;;;;5038369;28;20029;-69
2022/03/03 02:37:20;;;;;;;25.13;14.50;;;0.00;99.90;;;;;;5041700;28;20030;-70
2022/03/03 02:39:45;;;;;;;28.63;15.30;;;0.00;99.90;;;;;;5040015;28;20041;-70
2022/03/03 02:42:11;;;;;;;24.33;15.45;;;0.00;99.90;;;;;;5039670;28;20040;-70
2022/03/03 02:44:36;;;;;;;27.45;15.57;;;0.00;99.90;;;;;;5040652;28;20564;-69
2022/03/03 02:47:02;;;;;;;23.42;15.40;;;0.10;99.90;;;;;;5039441;28;20067;-69
2022/03/03 02:49:29;;;;;;;27.23;17.58;;;0.10;99.90;;;;;;5039978;28;20116;-70
2022/03/03 02:51:54;;;;;;;30.65;17.70;;;0.20;99.90;;;;;;5037999;28;20040;-70
2022/03/03 02:54:20;;;;;;;26.55;15.65;;;0.20;99.90;;;;;;5038637;28;20033;-70
2022/03/03 02:59:30;;;;;;;23.65;14.25;;;0.10;99.90;;;;;;5038767;28;20040;-70
2022/03/03 03:01:55;;;;;;;25.25;15.30;;;0.10;99.90;;;;;;5033998;28;20029;-70
2022/03/03 03:04:21;;;;;;;26.80;14.88;;;0.20;99.90;;;;;;5038971;28;20067;-70
2022/03/03 03:06:46;;;;;;;21.67;12.90;;;0.20;99.90;;;;;;5038486;28;20477;-69
2022/03/03 03:09:12;;;;;;;22.80;14.82;;;0.20;99.90;;;;;;5039627;28;20021;-67
2022/03/03 03:11:38;;;;;;;22.65;15.18;;;0.20;99.90;;;;;;5037309;28;20021;-67
2022/03/03 03:14:04;;;;;;;;;;;0.20;99.90;;;;;;5038829;28;20481;-67
2022/03/03 03:16:29;;;;;;;20.85;14.40;;;0.20;99.90;;;;;;5037266;28;19963;-67
2022/03/03 03:18:55;;;;;;;25.42;15.60;;;0.20;99.90;;;;;;5037434;28;20493;-67
2022/03/03 03:21:20;;;;;;;26.00;15.02;;;0.10;99.90;;;;;;5038917;28;20473;-67
2022/03/03 03:23:46;;;;;;;25.38;15.68;;;0.10;99.90;;;;;;5037717;28;20025;-67
2022/03/03 03:26:11;;;;;;;23.15;13.90;;;0.10;99.90;;;;;;5038645;28;20044;-67
2022/03/03 03:28:37;;;;;;;25.08;15.85;;;0.10;99.90;;;;;;5037023;28;20060;-67
2022/03/03 03:31:02;;;;;;;19.90;14.15;;;0.20;99.90;;;;;;5035591;28;20041;-67
2022/03/03 03:33:28;;;;;;;23.77;13.77;;;0.20;99.90;;;;;;5037295;28;20033;-67
2022/03/03 03:35:56;;;;;;;25.80;13.68;;;0.10;99.90;;;;;;5038962;28;20115;-67
2022/03/03 03:38:21;;;;;;;21.88;14.20;;;0.10;99.90;;;;;;5036744;28;20049;-67
2022/03/03 03:40:47;;;;;;;23.40;14.85;;;0.10;99.90;;;;;;5036305;28;20064;-67
2022/03/03 03:43:12;;;;;;;19.83;13.05;;;0.00;99.90;;;;;;5037480;28;21300;-67
2022/03/03 03:45:38;;;;;;;20.70;14.00;;;0.00;99.90;;;;;;5037715;28;20032;-66
2022/03/03 03:48:04;;;;;;;22.35;14.63;;;0.00;99.90;;;;;;5038482;28;20026;-67
2022/03/03 03:50:30;;;;;;;24.42;13.90;;;0.00;99.90;;;;;;5039235;28;20034;-67
2022/03/03 03:52:55;;;;;;;19.13;13.73;;;0.00;99.90;;;;;;5037366;28;20037;-67
2022/03/03 03:55:23;;;;;;;24.08;13.18;;;0.00;99.90;;;;;;5037299;28;20436;-67
2022/03/03 03:57:48;;;;;;;22.92;13.75;;;0.00;99.90;;;;;;5038189;28;20033;-66
2022/03/03 04:00:15;;;;;;;22.70;12.48;;;-0.10;99.90;;;;;;5035890;28;20039;-67
2022/03/03 04:02:42;;;;;;;20.13;13.00;;;0.00;99.90;;;;;;5036885;28;20064;-67
2022/03/03 04:05:07;;;;;;;18.92;12.50;;;-0.10;99.90;;;;;;5037925;28;20052;-67
2022/03/03 04:07:33;;;;;;;21.60;12.50;;;-0.10;99.90;;;;;;5038121;28;20053;-67
2022/03/03 04:09:59;;;;;;;20.05;12.07;;;-0.10;99.90;;;;;;5037598;28;20033;-67
2022/03/03 04:12:25;;;;;;;22.23;12.45;;;-0.10;99.90;;;;;;5034035;28;20071;-67
2022/03/03 04:14:51;;;;;;;22.80;13.38;;;-0.10;99.90;;;;;;5039120;28;20033;-67
2022/03/03 04:17:16;;;;;;;19.83;12.02;;;-0.10;99.90;;;;;;5034570;28;20040;-67
2022/03/03 04:19:42;;;;;;;22.30;11.63;;;-0.20;99.90;;;;;;5038038;28;20033;-67
2022/03/03 04:22:07;;;;;;;23.52;12.00;;;-0.20;99.90;;;;;;5034356;28;20083;-67
2022/03/03 04:24:33;;;;;;;21.13;13.15;;;-0.20;99.90;;;;;;5039074;28;20131;-67
2022/03/03 04:26:58;;;;;;;26.95;13.75;;;-0.20;99.90;;;;;;5037373;28;20417;-67
2022/03/03 04:29:24;;;;;;;19.38;12.57;;;-0.20;99.90;;;;;;5036844;28;20107;-67
2022/03/03 04:31:51;;;;;;;25.33;14.98;;;-0.20;99.90;;;;;;5035502;28;20038;-67
2022/03/03 04:34:17;;;;;;;21.92;13.52;;;-0.30;99.90;;;;;;5038298;28;20031;-66
2022/03/03 04:36:42;;;;;;;21.63;13.50;;;-0.30;99.90;;;;;;5036828;28;21683;-66
2022/03/03 04:39:08;;;;;;;25.58;15.00;;;-0.20;99.90;;;;;;5037549;28;20053;-67
2022/03/03 04:41:33;;;;;;;20.35;13.95;;;-0.20;99.90;;;;;;5036920;28;20602;-67
2022/03/03 04:43:59;;;;;;;24.30;13.70;;;-0.20;99.90;;;;;;5038255;28;20033;-67
2022/03/03 04:46:24;;;;;;;21.95;12.30;;;-0.20;99.90;;;;;;5034779;28;20036;-66
2022/03/03 04:48:50;;;;;;;20.55;12.43;;;-0.20;99.90;;;;;;5038881;28;20111;-67
2022/03/03 04:51:15;;;;;;;24.42;12.35;;;-0.30;99.90;;;;;;5035272;28;20033;-67
2022/03/03 04:53:41;;;;;;;19.98;11.82;;;-0.30;99.90;;;;;;5038711;28;20448;-67
2022/03/03 04:56:07;;;;;;;20.38;11.93;;;-0.30;99.90;;;;;;5036079;28;20030;-67
2022/03/03 04:58:32;;;;;;;18.98;13.00;;;-0.30;99.90;;;;;;5038347;28;20033;-66
2022/03/03 05:00:58;;;;;;;18.85;13.00;;;-0.40;99.90;;;;;;5029845;28;20029;-66
2022/03/03 05:03:23;;;;;;;19.63;12.73;;;-0.40;99.90;;;;;;5037463;28;21014;-66
2022/03/03 05:05:49;;;;;;;16.95;11.40;;;-0.50;99.90;;;;;;5035595;28;20020;-67
2022/03/03 05:08:14;;;;;;;19.92;12.77;;;-0.50;99.90;;;;;;5037349;28;20392;-67
2022/03/03 05:10:40;;;;;;;20.38;12.98;;;-0.60;99.90;;;;;;5036169;28;20381;-66
2022/03/03 05:13:05;;;;;;;22.67;13.07;;;-0.60;99.90;;;;;;5038010;28;20489;-66
2022/03/03 05:15:31;;;;;;;20.65;13.02;;;-0.70;99.90;;;;;;5034868;28;20029;-66
2022/03/03 05:17:58;;;;;;;19.30;10.80;;;-0.70;99.90;;;;;;5038044;28;20642;-66
2022/03/03 05:20:24;;;;;;;22.73;14.98;;;-0.70;99.90;;;;;;5031304;28;20048;-67
2022/03/03 05:22:50;;;;;;;20.80;14.32;;;-0.80;99.90;;;;;;5036477;28;20033;-67
2022/03/03 05:25:15;;;;;;;26.98;15.10;;;-0.70;99.90;;;;;;5036925;28;20036;-67
2022/03/03 05:27:41;;;;;;;27.35;14.60;;;-0.70;99.90;;;;;;5037694;28;20099;-67
2022/03/03 05:30:09;;;;;;;26.50;16.67;;;-0.80;99.90;;;;;;5033838;28;20033;-67
2022/03/03 05:32:36;;;;;;;28.50;18.27;;;-0.80;99.90;;;;;;5032710;28;20037;-67
2022/03/03 05:35:02;;;;;;;26.15;16.58;;;-0.90;99.90;;;;;;5031230;28;20036;-67
2022/03/03 05:37:28;;;;;;;37.88;21.00;;;-0.90;99.90;;;;;;5034829;28;20084;-68
2022/03/03 05:39:53;;;;;;;30.27;17.67;;;-0.90;99.90;;;;;;5035004;28;20041;-68
2022/03/03 05:42:20;;;;;;;28.83;16.67;;;-0.90;99.90;;;;;;5036094;28;20132;-68
2022/03/03 05:44:50;;;;;;;26.90;16.20;;;-0.90;99.90;;;;;;5034926;28;20052;-68
2022/03/03 05:47:16;;;;;;;39.53;19.83;;;-0.90;99.90;;;;;;5036954;28;20025;-68
2022/03/03 05:49:44;;;;;;;30.05;17.08;;;-0.90;99.90;;;;;;5035941;28;20029;-68
2022/03/03 05:52:11;;;;;;;33.78;18.17;;;-0.90;99.90;;;;;;5034761;28;20432;-67
2022/03/03 05:54:37;;;;;;;36.40;20.38;;;-1.00;99.90;;;;;;5036149;28;20033;-67
2022/03/03 05:57:06;;;;;;;36.42;19.88;;;-1.00;99.90;;;;;;5036377;28;20079;-68
2022/03/03 05:59:35;;;;;;;37.30;20.75;;;-1.00;99.90;;;;;;5037354;28;20041;-67
2022/03/03 06:02:01;;;;;;;40.45;22.15;;;-0.90;99.90;;;;;;5035976;28;20037;-68
2022/03/03 06:04:28;;;;;;;33.45;20.52;;;-0.90;99.90;;;;;;5035516;28;20025;-67
2022/03/03 06:07:01;;;;;;;39.15;19.73;;;-0.90;99.90;;;;;;5034177;28;20535;-67
2022/03/03 06:09:32;;;;;;;34.28;19.23;;;-0.90;99.90;;;;;;5033841;28;20029;-67
2022/03/03 06:12:06;;;;;;;33.90;18.70;;;-0.80;99.90;;;;;;5033249;28;20036;-67
2022/03/03 06:14:47;;;;;;;34.83;17.63;;;-0.80;99.90;;;;;;5034633;28;20098;-70
2022/03/03 06:17:14;;;;;;;38.70;19.48;;;-0.80;99.90;;;;;;5035910;28;20039;-69
2022/03/03 06:19:41;;;;;;;32.55;17.30;;;-0.80;99.90;;;;;;5035288;28;20041;-70
2022/03/03 06:22:11;;;;;;;31.67;17.33;;;-0.70;99.90;;;;;;5034506;28;20041;-69
2022/03/03 06:24:36;;;;;;;48.28;20.77;;;-0.70;99.90;;;;;;5032818;28;20367;-71
2022/03/03 06:27:03;;;;;;;35.90;17.92;;;-0.60;99.90;;;;;;5034238;28;20078;-74
2022/03/03 06:29:28;;;;;;;;;;;-0.60;99.90;;;;;;5034756;28;20112;-71
2022/03/03 06:31:54;;;;;;;27.08;16.02;;;-0.60;99.90;;;;;;5033589;28;19984;-71
2022/03/03 06:34:20;;;;;;;30.13;15.05;;;-0.60;99.90;;;;;;5038069;28;20033;-71
2022/03/03 06:36:49;;;;;;;39.70;18.38;;;-0.60;99.90;;;;;;5037747;28;20041;-71
2022/03/03 06:39:15;;;;;;;34.30;16.33;;;-0.60;99.90;;;;;;5037789;28;20428;-71
2022/03/03 06:41:41;;;;;;;34.97;16.42;;;-0.50;99.90;;;;;;5037147;28;20082;-71
2022/03/03 06:44:07;;;;;;;29.40;16.25;;;-0.60;99.90;;;;;;5038247;28;20645;-71
2022/03/03 06:46:33;;;;;;;24.23;14.85;;;-0.60;99.90;;;;;;5039451;28;20053;-71
2022/03/03 06:48:59;;;;;;;29.23;15.27;;;-0.60;99.90;;;;;;5040648;28;20064;-71
2022/03/03 06:51:28;;;;;;;24.85;14.65;;;-0.60;99.90;;;;;;5039932;28;20553;-71
2022/03/03 06:54:01;;;;;;;47.83;17.10;;;-0.50;99.90;;;;;;5040795;28;20502;-71
2022/03/03 06:56:29;;;;;;;29.15;15.40;;;-0.60;99.90;;;;;;5039480;28;20028;-71
2022/03/03 06:58:59;;;;;;;38.83;17.50;;;-0.50;99.90;;;;;;5039748;28;20113;-71
2022/03/03 07:01:27;;;;;;;33.97;17.85;;;-0.50;99.90;;;;;;5040350;28;20032;-71
2022/03/03 07:03:53;;;;;;;36.97;16.33;;;-0.50;99.90;;;;;;5038790;28;20040;-71
2022/03/03 07:06:18;;;;;;;32.13;15.38;;;-0.50;99.90;;;;;;5034535;28;20029;-72
2022/03/03 07:08:46;;;;;;;35.13;15.60;;;-0.40;99.90;;;;;;5039015;28;20103;-71
2022/03/03 07:11:14;;;;;;;36.20;15.45;;;-0.40;99.90;;;;;;5034152;28;20029;-69
2022/03/03 07:13:43;;;;;;;32.88;16.05;;;-0.30;99.90;;;;;;5035563;28;20048;-69
2022/03/03 07:16:36;;;;;;;36.97;16.33;;;-0.30;99.90;;;;;;5039485;28;20033;-71
2022/03/03 07:19:03;;;;;;;35.08;16.58;;;-0.20;99.90;;;;;;5038241;28;20242;-70
2022/03/03 07:21:51;;;;;;;31.42;15.80;;;-0.20;99.90;;;;;;5037907;28;20489;-69
2022/03/03 07:24:28;;;;;;;30.83;16.92;;;-0.20;99.90;;;;;;5037947;28;20075;-69
2022/03/03 07:26:56;;;;;;;;;;;-0.10;99.90;;;;;;5037000;28;20112;-71
2022/03/03 07:29:26;;;;;;;33.00;16.17;;;-0.10;99.90;;;;;;5039728;28;20324;-70
2022/03/03 07:31:55;;;;;;;30.55;16.77;;;0.00;99.90;;;;;;5036128;28;20067;-71
2022/03/03 07:34:28;;;;;;;32.42;17.73;;;0.00;99.90;;;;;;5037245;28;20056;-70
2022/03/03 07:36:57;;;;;;;24.25;15.65;;;0.10;99.90;;;;;;5033896;28;20660;-72
2022/03/03 07:39:30;;;;;;;27.77;15.30;;;0.00;99.90;;;;;;5037709;28;20037;-70
2022/03/03 07:41:57;;;;;;;23.17;14.50;;;0.00;99.90;;;;;;5037125;28;20337;-69
2022/03/03 07:44:23;;;;;;;22.58;14.30;;;0.10;99.90;;;;;;5037421;28;20024;-68
2022/03/03 07:46:48;;;;;;;;;;;0.10;99.90;;;;;;5035499;28;20105;-68
2022/03/03 07:49:16;;;;;;;27.23;15.43;;;0.20;99.90;;;;;;5037977;28;20003;-67
2022/03/03 07:51:42;;;;;;;24.50;14.55;;;0.30;99.90;;;;;;5035822;28;20033;-66
2022/03/03 07:54:07;;;;;;;26.38;16.40;;;0.40;99.90;;;;;;5037430;28;20080;-66
2022/03/03 07:56:39;;;;;;;23.90;15.52;;;0.50;99.90;;;;;;5037520;28;20167;-67
2022/03/03 07:59:09;;;;;;;24.52;15.50;;;0.50;99.90;;;;;;5037225;28;20025;-68
2022/03/03 08:01:35;;;;;;;28.48;16.90;;;0.60;99.90;;;;;;5035818;28;20033;-68
2022/03/03 08:04:02;;;;;;;22.77;14.43;;;0.70;99.90;;;;;;5035989;28;20025;-69
2022/03/03 08:06:28;;;;;;;;;;;0.70;99.90;;;;;;5038430;28;20025;-69
2022/03/03 08:08:55;;;;;;;30.27;16.88;;;0.80;99.90;;;;;;5036820;28;19913;-69
2022/03/03 08:11:24;;;;;;;28.10;16.17;;;0.90;99.90;;;;;;5035408;28;20413;-69
2022/03/03 08:13:52;;;;;;;27.25;14.40;;;0.90;99.90;;;;;;5036784;28;20037;-69
2022/03/03 08:16:18;;;;;;;23.83;15.30;;;0.90;99.90;;;;;;5035932;28;20025;-68
2022/03/03 08:18:47;;;;;;;28.00;17.15;;;1.00;99.90;;;;;;5036129;28;20486;-68
2022/03/03 08:21:14;;;;;;;29.42;16.63;;;1.00;99.90;;;;;;5036782;28;20048;-68
2022/03/03 08:23:42;;;;;;;24.58;15.35;;;1.10;99.90;;;;;;5034942;28;20076;-67
2022/03/03 08:26:11;;;;;;;29.55;16.33;;;1.20;99.90;;;;;;5036801;28;20358;-68
2022/03/03 08:28:37;;;;;;;28.60;15.50;;;1.20;99.90;;;;;;5035790;28;20453;-68
2022/03/03 08:31:06;;;;;;;45.58;18.60;;;1.30;99.90;;;;;;5035442;28;20029;-68
2022/03/03 08:33:52;;;;;;;31.80;18.85;;;1.40;99.90;;;;;;5036753;28;20033;-68
2022/03/03 08:36:45;;;;;;;26.83;15.30;;;1.50;99.90;;;;;;5034373;28;20441;-68
2022/03/03 08:39:14;;;;;;;27.48;16.23;;;1.70;99.90;;;;;;5035197;28;20026;-69
2022/03/03 08:41:41;;;;;;;25.42;15.00;;;1.80;99.90;;;;;;5035636;28;20033;-68
2022/03/03 08:44:08;;;;;;;27.27;16.55;;;1.90;99.90;;;;;;5036060;28;20145;-68
2022/03/03 08:46:35;;;;;;;24.00;15.20;;;2.00;99.90;;;;;;5035704;28;20033;-67
2022/03/03 08:49:04;;;;;;;25.35;13.95;;;2.10;99.90;;;;;;5033601;28;20452;-67
2022/03/03 08:51:30;;;;;;;28.85;17.65;;;2.20;99.90;;;;;;5034350;28;20030;-70
2022/03/03 08:53:56;;;;;;;25.20;14.60;;;2.30;99.90;;;;;;5035997;28;20030;-68
2022/03/03 08:56:25;;;;;;;24.02;14.02;;;2.40;99.90;;;;;;5036666;28;20032;-68
2022/03/03 08:58:52;;;;;;;21.77;14.02;;;2.50;99.90;;;;;;5036350;28;20132;-68
2022/03/03 09:01:18;;;;;;;24.63;14.70;;;2.60;99.90;;;;;;5035859;28;20126;-68
2022/03/03 09:03:43;;;;;;;;;;;2.60;99.90;;;;;;5036819;28;20041;-69
2022/03/03 09:06:13;;;;;;;25.38;15.20;;;2.80;99.90;;;;;;5035289;28;20276;-70
2022/03/03 09:08:39;;;;;;;22.75;14.32;;;2.80;99.50;;;;;;5035628;28;20044;-69
2022/03/03 09:11:04;;;;;;;24.17;15.25;;;2.90;99.50;;;;;;5037193;28;20553;-69
2022/03/03 09:13:30;;;;;;;25.42;15.65;;;3.00;99.60;;;;;;5036478;28;20056;-69
2022/03/03 09:15:56;;;;;;;29.05;17.38;;;3.10;99.50;;;;;;5037016;28;20034;-69
2022/03/03 09:18:21;;;;;;;24.67;15.07;;;3.10;99.40;;;;;;5037989;28;20061;-69
2022/03/03 09:20:47;;;;;;;32.15;15.48;;;3.20;99.30;;;;;;5034082;28;20114;-70
2022/03/03 09:23:13;;;;;;;29.80;15.77;;;3.30;99.20;;;;;;5037201;28;20501;-70
2022/03/03 09:25:39;;;;;;;23.65;15.18;;;3.40;98.50;;;;;;5032935;28;20060;-69
2022/03/03 09:28:06;;;;;;;27.73;15.65;;;3.40;97.60;;;;;;5034500;28;20508;-68
2022/03/03 09:30:32;;;;;;;25.38;15.93;;;3.50;98.00;;;;;;5036225;28;20478;-70
2022/03/03 09:32:58;;;;;;;24.33;14.25;;;3.60;97.70;;;;;;5035476;28;20060;-69
2022/03/03 09:35:25;;;;;;;;;;;3.60;97.50;;;;;;5035089;28;20056;-69
2022/03/03 09:37:51;;;;;;;33.03;15.82;;;3.60;97.90;;;;;;5034597;28;20000;-70
2022/03/03 09:40:17;;;;;;;28.85;15.88;;;3.70;97.90;;;;;;5036647;28;20104;-70
2022/03/03 09:42:57;;;;;;;35.80;16.58;;;3.80;97.10;;;;;;5035431;28;20444;-69
2022/03/03 09:45:24;;;;;;;26.77;14.30;;;3.90;97.30;;;;;;5034734;28;20120;-69
2022/03/03 09:47:52;;;;;;;25.00;17.88;;;3.90;97.00;;;;;;5034980;28;20390;-70
2022/03/03 09:50:18;;;;;;;26.17;16.23;;;4.10;96.90;;;;;;5034133;28;20470;-70
2022/03/03 09:52:45;;;;;;;25.92;16.33;;;4.10;97.00;;;;;;5034345;28;20032;-69
2022/03/03 09:55:11;;;;;;;31.05;15.95;;;4.20;95.60;;;;;;5036778;28;20508;-69
2022/03/03 09:57:36;;;;;;;;;;;4.20;95.10;;;;;;5035805;28;20033;-69
2022/03/03 10:00:07;;;;;;;25.75;15.80;;;4.40;95.20;;;;;;5036815;28;19950;-69
2022/03/03 10:02:32;;;;;;;29.13;16.73;;;4.50;93.80;;;;;;5035608;28;20112;-68
2022/03/03 10:04:58;;;;;;;31.02;18.70;;;4.50;94.20;;;;;;5033342;28;20101;-67
2022/03/03 10:07:25;;;;;;;37.28;20.20;;;4.60;94.70;;;;;;5036619;28;20029;-67
2022/03/03 10:10:00;;;;;;;35.22;20.90;;;4.60;94.90;;;;;;5037552;28;20084;-68
2022/03/03 10:12:30;;;;;;;29.83;19.08;;;4.70;95.30;;;;;;5038115;28;20029;-70
2022/03/03 10:14:59;;;;;;;33.53;21.08;;;4.80;95.30;;;;;;5039429;28;20017;-69
2022/03/03 10:17:37;;;;;;;34.38;21.33;;;4.90;95.40;;;;;;5039564;28;20101;-71
2022/03/03 10:20:05;;;;;;;36.22;21.50;;;5.00;95.60;;;;;;5040023;28;20033;-71
2022/03/03 10:22:45;;;;;;;32.25;19.45;;;5.10;95.40;;;;;;5038262;28;20098;-71
2022/03/03 10:25:13;;;;;;;34.35;21.00;;;5.10;95.10;;;;;;5037573;28;20045;-70
2022/03/03 10:27:40;;;;;;;38.88;21.60;;;5.10;95.20;;;;;;5039008;28;20075;-70
2022/03/03 10:30:08;;;;;;;;;;;5.20;95.20;;;;;;5038627;28;20024;-70
2022/03/03 10:32:39;;;;;;;34.35;20.75;;;5.30;95.20;;;;;;5038510;28;19996;-70
2022/03/03 10:35:14;;;;;;;40.10;22.98;;;5.30;95.60;;;;;;5038265;28;20027;-69
2022/03/03 10:37:41;;;;;;;32.40;20.17;;;5.30;95.40;;;;;;5039451;28;20043;-69
2022/03/03 10:40:11;;;;;;;36.85;21.45;;;5.40;95.40;;;;;;5037381;28;20035;-69
2022/03/03 10:42:37;;;;;;;41.25;22.33;;;5.50;94.90;;;;;;5035929;28;20494;-69
2022/03/03 10:45:11;;;;;;;44.90;26.63;;;5.60;94.80;;;;;;5038876;28;20036;-70
2022/03/03 10:47:42;;;;;;;30.70;18.88;;;5.70;94.90;;;;;;5039653;28;20033;-69
2022/03/03 10:50:08;;;;;;;44.78;22.73;;;5.80;95.20;;;;;;5037475;28;20465;-72
2022/03/03 10:52:35;;;;;;;;;;;5.90;94.10;;;;;;5038380;28;20048;-72
2022/03/03 10:55:12;;;;;;;33.25;18.45;;;5.90;94.30;;;;;;5035578;28;20042;-71
2022/03/03 10:57:39;;;;;;;35.60;21.95;;;6.00;94.30;;;;;;5036291;28;20044;-70
2022/03/03 11:00:16;;;;;;;36.78;21.00;;;6.10;93.90;;;;;;5038613;28;20512;-70
2022/03/03 11:02:48;;;;;;;45.28;23.67;;;6.10;93.20;;;;;;5040478;28;20036;-70
2022/03/03 11:05:15;;;;;;;38.33;24.10;;;6.10;93.10;;;;;;5040581;28;20103;-70
2022/03/03 11:07:45;;;;;;;36.63;20.50;;;6.20;93.30;;;;;;5036231;28;20025;-71
2022/03/03 11:10:14;;;;;;;29.63;17.63;;;6.30;93.60;;;;;;5038283;28;20151;-71
2022/03/03 11:12:42;;;;;;;26.95;16.25;;;6.40;92.60;;;;;;5034099;28;20040;-70
2022/03/03 11:15:08;;;;;;;28.85;17.17;;;6.50;92.20;;;;;;5036352;28;20041;-70
2022/03/03 11:17:35;;;;;;;;;;;6.50;91.50;;;;;;5040062;28;20025;-70
2022/03/03 11:20:01;;;;;;;38.25;21.00;;;6.60;91.00;;;;;;5039377;28;19909;-71
2022/03/03 11:22:29;;;;;;;31.95;17.98;;;6.60;91.40;;;;;;5037025;28;20025;-71
2022/03/03 11:25:01;;;;;;;34.55;20.10;;;6.70;88.80;;;;;;5038397;28;20414;-70
2022/03/03 11:27:33;;;;;;;39.05;20.27;;;6.60;90.20;;;;;;5038422;28;20021;-70
2022/03/03 11:30:12;;;;;;;32.15;16.98;;;6.70;90.90;;;;;;5038336;28;20032;-70
2022/03/03 11:32:38;;;;;;;24.13;15.18;;;6.80;89.00;;;;;;5038075;28;20032;-70
2022/03/03 11:35:09;;;;;;;20.80;13.63;;;6.90;86.10;;;;;;5038609;28;20029;-70
2022/03/03 11:37:43;;;;;;;47.88;25.42;;;6.90;87.10;;;;;;5037348;28;20120;-71
2022/03/03 11:40:12;;;;;;;35.83;16.90;;;6.90;85.10;;;;;;5038797;28;20881;-70
2022/03/03 11:42:47;;;;;;;51.58;26.65;;;7.00;85.50;;;;;;5039916;28;20420;-70
2022/03/03 11:45:12;;;;;;;85.45;45.72;;;7.00;84.20;;;;;;5039453;28;20549;-71
2022/03/03 11:47:42;;;;;;;59.10;32.70;;;7.10;83.80;;;;;;5037225;28;20163;-70
2022/03/03 11:50:16;;;;;;;43.28;24.88;;;7.10;84.80;;;;;;5034604;28;20546;-71
2022/03/03 11:53:11;;;;;;;32.70;18.25;;;7.20;86.00;;;;;;5037589;28;20061;-71
2022/03/03 11:55:43;;;;;;;27.92;16.23;;;7.20;88.80;;;;;;5031940;28;20045;-71
2022/03/03 11:58:10;;;;;;;21.85;12.45;;;7.20;86.10;;;;;;5036785;28;20025;-72
2022/03/03 12:00:40;;;;;;;29.08;16.00;;;7.30;83.40;;;;;;5037800;28;20025;-72
2022/03/03 12:03:09;;;;;;;28.52;14.82;;;7.40;83.10;;;;;;5037225;28;20028;-73
2022/03/03 12:05:37;;;;;;;26.38;16.80;;;7.50;84.70;;;;;;5039225;28;20553;-73
2022/03/03 12:08:06;;;;;;;25.77;16.27;;;7.40;85.30;;;;;;5038438;28;20044;-74
2022/03/03 12:10:33;;;;;;;45.92;24.33;;;7.40;85.60;;;;;;5039913;28;20025;-74
2022/03/03 12:13:27;;;;;;;38.38;18.58;;;7.40;85.90;;;;;;5038006;28;20116;-74
2022/03/03 12:16:12;;;;;;;44.10;20.38;;;7.50;86.90;;;;;;5037260;28;20029;-72
2022/03/03 12:18:38;;;;;;;39.97;19.25;;;7.40;86.00;;;;;;5038771;28;20037;-71
2022/03/03 12:21:29;;;;;;;25.38;14.73;;;7.40;86.20;;;;;;5038015;28;20347;-72
2022/03/03 12:24:20;;;;;;;22.40;13.63;;;7.40;85.30;;;;;;5036947;28;20568;-71
2022/03/03 12:26:54;;;;;;;25.00;14.43;;;7.50;81.80;;;;;;5037424;28;20025;-74
2022/03/03 12:29:57;;;;;;;26.92;14.15;;;7.30;83.90;;;;;;5035655;28;20541;-72
2022/03/03 12:32:38;;;;;;;22.15;12.70;;;7.30;88.60;;;;;;5033674;28;20041;-72
2022/03/03 12:35:09;;;;;;;27.92;13.98;;;7.50;85.70;;;;;;5038080;28;20036;-73
2022/03/03 12:37:42;;;;;;;35.38;18.50;;;7.50;85.90;;;;;;5036911;28;20025;-73
2022/03/03 12:40:09;;;;;;;60.47;30.85;;;7.60;86.70;;;;;;5038160;28;20025;-73
2022/03/03 12:42:35;;;;;;;33.25;17.65;;;7.60;87.20;;;;;;5036685;28;20025;-70
2022/03/03 12:45:07;;;;;;;30.33;15.88;;;7.50;89.10;;;;;;5038288;28;20401;-70